Terminal Aerodrome Forecast
Issued by NWS

Home | Current Version | Previous Version | Text Only | Print | Product List | Glossary On
Versions: 1 2 3 4 5 6 7 8 9 10 11 12 13 14 15 16 17 18 19 20
000
FTUS43 KLSX 181000 AAA
TAFSUS
TAF AMD
KSUS 181059Z 1811/1906 VRB03KT P6SM OVC024
     FM181500 10005KT P6SM OVC030
     FM181800 09005KT P6SM SCT035=

USA.gov is the U.S. government's official web portal to all federal, state and local government web resources and services.